Latest Coastal Weather Observations for Brisbane Airport

IDQ60701

Issued at 12:05 am EST Tuesday 2 September 2014 (issued every 10 minutes, with the page automatically refreshed every 10 minutes)

About coastal observations | Map of coastal stations | Coastal observations for QLD | Marine services | Other Formats
Station Details ID: 040842 Name: BRISBANE AERO Lat: -27.39 Lon: 153.13 Height: 4.51 m
Data from the previous 72 hours. | See also: Recent months at Brisbane Airport
Date/Time
EST
Temp

°C
Wind Pressure Rain
since 9am
mm
Weather Cloud Vis
km
Sea
Height
m
Swell
Dir
 
Speed
knots
Gust
knots
hPa Trend Height
m
Period
s
Dir
02/12:00am 16.6 N 13 16 1015.3 F 0.0 Fine Clear 30 - - - -
 
Date/Time
EST
Temp

°C
Wind Pressure Rain
since 9am
mm
Weather Cloud Vis
km
Sea
Height
m
Swell
Dir
 
Speed
knots
Gust
knots
hPa Trend Height
m
Period
s
Dir
01/11:30pm 17.2 N 14 16 1015.4 - 0.0 - - 10 - - - -
01/11:00pm 17.2 N 12 16 1015.6 - 0.0 - - 10 - - - -
01/10:30pm 17.6 N 13 16 1015.6 - 0.0 - - 10 - - - -
01/10:00pm 17.8 N 12 16 1015.8 - 0.0 - - 10 - - - -
01/09:30pm 18.5 N 11 14 1015.9 - 0.0 - - 10 - - - -
01/09:00pm 18.3 N 13 16 1016.2 F 0.0 Fine Mostly clear 30 - - - -
01/08:30pm 18.4 N 11 14 1016.2 - 0.0 - - 10 - - - -
01/08:00pm 18.4 N 10 14 1016.2 - 0.0 - - 10 - - - -
01/07:30pm 18.5 N 9 18 1016.3 - 0.0 - - 10 - - - -
01/07:00pm 19.1 N 10 13 1016.1 - 0.0 - - 10 - - - -
01/06:30pm 18.9 N 10 14 1015.6 - 0.0 - - 10 - - - -
01/06:00pm 18.7 N 12 15 1015.4 F 0.0 Smoke Partly cloudy 30 - - - -
01/05:30pm 19.2 N 12 15 1015.4 - 0.0 - - 10 - - - -
01/05:00pm 19.9 N 12 15 1015.4 - 0.0 - - 10 - - - -
01/04:30pm 20.6 N 13 17 1015.0 - 0.0 - Mostly clear 10 - - - -
01/04:00pm 20.9 N 15 19 1014.6 - 0.0 - Mostly clear 10 - - - -
01/03:30pm 20.9 NNE 13 18 1014.7 - 0.0 - Mostly clear 10 - - - -
01/03:00pm 21.7 NE 11 15 1015.0 F 0.0 Fine Mostly clear 30 - - - -
01/02:30pm 21.3 NNE 15 18 1015.4 - 0.0 - Mostly clear 10 - - - -
01/02:00pm 21.7 NNE 14 18 1015.7 - 0.0 - Mostly clear 10 - - - -
01/01:30pm 22.3 NNE 13 16 1016.1 - 0.0 - Mostly clear 10 - - - -
01/01:00pm 21.8 NNE 14 17 1016.4 - 0.0 - Mostly clear 10 - - - -
01/12:30pm 22.4 NNE 10 13 1016.8 - 0.0 - Mostly clear 10 - - - -
01/12:00pm 22.2 NNE 9 10 1017.2 F 0.0 Fine Mostly clear 30 - - - -
01/11:30am 21.6 NE 9 12 1017.8 - 0.0 - Mostly clear 10 - - - -
01/11:00am 21.6 NNE 7 10 1018.6 - 0.0 - Mostly clear 10 - - - -
01/10:30am 21.2 NNE 9 12 1019.0 - 0.0 - Mostly clear 10 - - - -
01/10:00am 20.6 NNE 7 9 1019.5 - 0.0 - Mostly clear 10 - - - -
01/09:30am 20.6 N 4 9 1019.6 - 0.0 - Mostly clear 10 - - - -
01/09:00am 19.9 WNW 1 5 1019.8 S 0.0 Fine Mostly clear 20 - - - -
01/08:30am 18.8 SW 4 5 1019.7 - 0.0 - Mostly clear 10 - - - -
01/08:00am 17.3 S 4 5 1019.6 - 0.0 - Mostly clear 10 - - - -
01/07:30am 16.4 CALM 0 3 1019.3 - 0.0 - - 10 - - - -
01/07:00am 15.2 CALM 0 0 1019.0 - 0.0 - - 10 - - - -
01/06:51am 14.9 CALM 0 0 1019.0 - 0.0 - - 10 - - - -
01/06:30am 14.0 CALM 0 0 1018.8 - 0.0 Shallow fog Mostly clear 10 - - - -
01/06:00am 13.6 CALM 0 0 1018.7 F 0.0 Shallow fog Partly cloudy 15 - - - -
01/05:30am 14.0 CALM 0 0 1018.3 - 0.0 Shallow fog Partly cloudy 10 - - - -
01/05:00am 14.4 CALM 0 0 1018.0 - 0.0 - Mostly clear 10 - - - -
01/04:30am 14.2 SSW 4 5 1018.1 - 0.0 - Mostly clear 10 - - - -
01/04:00am 14.2 SSW 4 5 1018.0 - 0.0 - Partly cloudy 10 - - - -
01/03:30am 14.6 SSW 4 6 1017.9 - 0.0 - Partly cloudy 10 - - - -
01/03:00am 14.5 SSW 4 5 1018.0 R 0.0 Fine Partly cloudy 25 - - - -
01/02:30am 14.7 SSW 2 4 1018.1 - 0.0 - Partly cloudy 10 - - - -
01/02:00am 14.8 CALM 0 3 1018.2 - 0.0 - Partly cloudy 10 - - - -
01/01:30am 15.0 W 1 5 1018.3 - 0.0 - Partly cloudy 10 - - - -
01/01:00am 15.1 CALM 0 0 1018.4 - 0.0 - Partly cloudy 10 - - - -
01/12:30am 15.0 CALM 0 0 1018.5 - 0.0 - Partly cloudy 10 - - - -
01/12:00am 15.2 W 0 0 1018.6 R 0.0 Fine Partly cloudy 20 - - - -
 
Date/Time
EST
Temp

°C
Wind Pressure Rain
since 9am
mm
Weather Cloud Vis
km
Sea
Height
m
Swell
Dir
 
Speed
knots
Gust
knots
hPa Trend Height
m
Period
s
Dir
31/11:30pm 15.9 S 4 6 1018.7 - 0.0 - - 10 - - - -
31/11:00pm 15.6 S 3 5 1018.7 - 0.0 - - 10 - - - -
31/10:30pm 15.5 CALM 0 0 1018.8 - 0.0 - Partly cloudy 10 - - - -
31/10:00pm 15.6 CALM 0 0 1018.8 - 0.0 - Partly cloudy 10 - - - -
31/09:30pm 15.4 CALM 0 0 1018.5 - 0.0 - - 10 - - - -
31/09:00pm 15.8 CALM 0 0 1018.5 F 0.0 Fine Mostly clear 30 - - - -
31/08:30pm 16.7 CALM 0 0 1018.5 - 0.0 - - 10 - - - -
31/08:00pm 17.1 CALM 0 0 1018.4 - 0.0 - - 10 - - - -
31/07:30pm 17.8 E 3 5 1018.2 - 0.0 - - 10 - - - -
31/07:00pm 18.0 E 4 5 1017.9 - 0.0 - - 10 - - - -
31/06:30pm 18.5 E 5 6 1017.6 - 0.0 - - 10 - - - -
31/06:00pm 18.8 E 4 6 1017.3 - 0.0 - - 10 - - - -
31/05:30pm 19.2 E 5 9 1016.9 - 0.0 - - 10 - - - -
31/05:00pm 20.0 ENE 9 12 1016.6 - 0.0 - Mostly clear 10 - - - -
31/04:30pm 20.6 ENE 10 14 1016.3 - 0.0 - Mostly clear 10 - - - -
31/04:00pm 20.8 ENE 11 16 1016.1 - 0.0 - - 10 - - - -
31/03:30pm 21.2 ENE 10 14 1015.8 - 0.0 - - 10 - - - -
31/03:00pm 21.9 NE 11 15 1015.7 R 0.0 Fine Mostly clear 30 - - - -
31/02:30pm 21.9 NNE 10 14 1015.6 - 0.0 - - 10 - - - -
31/02:00pm 22.1 NNE 11 13 1015.8 - 0.0 - - 10 - - - -
31/01:30pm 22.0 NE 12 15 1015.9 - 0.0 - - 10 - - - -
31/01:00pm 22.3 NNE 13 15 1016.3 - 0.0 - - 10 - - - -
31/12:30pm 22.0 NE 11 13 1016.8 - 0.0 - - 10 - - - -
31/12:00pm 22.6 NE 9 11 1017.2 F 0.0 Fine Mostly clear 30 - - - -
31/11:30am 22.8 NNE 7 9 1017.7 - 0.0 - - 10 - - - -
31/11:00am 22.0 SSW 3 6 1018.1 - 0.0 - - 10 - - - -
31/10:30am 21.4 SSE 4 7 1018.7 - 0.0 - Mostly clear 10 - - - -
31/10:00am 21.0 S 6 8 1018.8 - 0.0 - Mostly clear 10 - - - -
31/09:30am 20.8 S 7 10 1018.9 - 0.0 - Mostly clear 10 - - - -
31/09:00am 19.7 SSW 6 9 1019.1 F 0.0 Fine Mostly clear 30 - - - -
31/08:30am 18.5 SSW 8 10 1019.3 - 0.0 - - 10 - - - -
31/08:00am 17.2 SSW 8 10 1019.1 - 0.0 - - 10 - - - -
31/07:30am 16.0 SSW 7 10 1018.9 - 0.0 - - 10 - - - -
31/07:00am 15.1 S 6 8 1018.8 - 0.0 - - 10 - - - -
31/06:30am 14.0 S 6 7 1018.7 - 0.0 - - 10 - - - -
31/06:00am 13.2 SSW 5 6 1018.4 S 0.0 Fine Mostly clear 30 - - - -
31/05:30am 14.0 S 6 8 1018.0 - 0.0 - - 10 - - - -
31/05:00am 13.1 SSW 6 7 1017.8 - 0.0 - Partly cloudy 10 - - - -
31/04:30am 14.8 S 7 8 1017.9 - 0.0 - Partly cloudy 10 - - - -
31/04:00am 14.9 SSW 5 6 1017.8 - 0.0 - Cloudy 10 - - - -
31/03:30am 14.3 SSW 5 6 1017.7 - 0.0 - Partly cloudy 10 - - - -
31/03:00am 14.6 WSW 4 6 1017.6 S 0.0 Fine Mostly cloudy 30 - - - -
31/02:30am 14.9 SW 4 5 1017.8 - 0.0 - Partly cloudy 10 - - - -
31/02:00am 14.9 WSW 3 4 1017.9 - 0.0 - Partly cloudy 10 - - - -
31/01:30am 14.9 CALM 0 0 1018.1 - 0.0 - Partly cloudy 10 - - - -
31/01:00am 14.4 W 2 3 1018.1 - 0.0 - Cloudy 10 - - - -
31/12:30am 14.5 WSW 1 4 1018.3 - 0.0 - Partly cloudy 10 - - - -
31/12:00am 14.8 W 4 5 1018.3 F 0.0 Fine Partly cloudy 30 - - - -
 
Date/Time
EST
Temp

°C
Wind Pressure Rain
since 9am
mm
Weather Cloud Vis
km
Sea
Height
m
Swell
Dir
 
Speed
knots
Gust
knots
hPa Trend Height
m
Period
s
Dir
30/11:30pm 14.8 WSW 4 7 1018.5 - 0.0 - Partly cloudy 10 - - - -
30/11:00pm 15.2 W 2 5 1018.6 - 0.0 - Partly cloudy 10 - - - -
30/10:30pm 15.9 W 1 4 1018.6 - 0.0 - Partly cloudy 10 - - - -
30/10:00pm 15.4 WNW 2 5 1018.5 - 0.0 - Partly cloudy 10 - - - -
30/09:30pm 15.8 W 5 10 1018.4 - 0.0 - - 10 - - - -
30/09:00pm 15.8 CALM 0 0 1018.5 F 0.0 Fine Mostly clear 30 - - - -
30/08:30pm 15.8 W 1 4 1018.5 - 0.0 - Cloudy 10 - - - -
30/08:00pm 15.6 W 4 5 1018.4 - 0.0 - - 10 - - - -
30/07:30pm 15.4 CALM 0 0 1018.1 - 0.0 - Partly cloudy 10 - - - -
30/07:00pm 16.0 CALM 0 0 1017.8 - 0.0 - - 10 - - - -
30/06:30pm 16.1 CALM 0 3 1017.3 - 0.0 - - 10 - - - -
30/06:00pm 17.1 CALM 0 3 1017.3 S 0.0 Fine Mostly clear 30 - - - -
30/05:30pm 18.7 ENE 4 4 1017.2 - 0.0 - - 10 - - - -
30/05:00pm 19.5 ENE 6 9 1017.0 - 0.0 - Partly cloudy 10 - - - -
30/04:30pm 19.9 ENE 7 9 1016.8 - 0.0 - Mostly clear 10 - - - -
30/04:00pm 19.5 ENE 7 10 1016.6 - 0.0 - Mostly clear 10 - - - -
30/03:30pm 19.4 ENE 8 11 1016.5 - 0.0 - Mostly clear 10 - - - -
30/03:00pm 20.2 NE 9 11 1016.4 R 0.0 Fine Mostly clear 30 - - - -
30/02:30pm 20.8 NE 10 13 1016.4 - 0.0 - Partly cloudy 10 - - - -
30/02:00pm 21.0 NE 10 13 1016.4 - 0.0 - Partly cloudy 10 - - - -
30/01:30pm 21.2 NNE 10 12 1016.6 - 0.0 - Partly cloudy 10 - - - -
30/01:00pm 21.1 N 9 11 1017.1 - 0.0 - Partly cloudy 10 - - - -
30/12:30pm 21.7 NE 7 11 1017.5 - 0.0 - - 10 - - - -
30/12:00pm 21.7 WSW 5 10 1018.1 F 0.0 Fine Mostly clear 30 - - - -
30/11:30am 20.5 WSW 6 10 1018.6 - 0.0 - - 10 - - - -
30/11:00am 20.1 WSW 10 14 1019.0 - 0.0 - - 10 - - - -
30/10:30am 19.9 SSW 8 11 1019.4 - 0.0 - - 10 - - - -
30/10:00am 19.4 SSW 7 9 1019.8 - 0.0 - - 10 - - - -
30/09:30am 18.3 SSW 7 9 1020.0 - 0.0 - - 10 - - - -
30/09:00am 17.1 SW 5 8 1020.2 F 0.0 Fine Mostly clear 30 - - - -
30/08:30am 15.4 W 6 8 1020.3 - 0.0 - - 10 - - - -
30/08:00am 13.9 SW 6 8 1020.3 - 0.0 - - 10 - - - -
30/07:30am 12.2 SW 7 8 1020.3 - 0.0 - - 10 - - - -
30/07:00am 11.1 SW 8 9 1020.0 - 0.0 - - 10 - - - -
30/06:30am 8.9 SSW 7 9 1019.9 - 0.0 - - 10 - - - -
30/06:00am 9.1 SSW 7 8 1019.6 F 0.0 Fine Mostly clear 30 - - - -
30/05:30am 10.3 SSW 5 7 1019.2 - 0.0 - - 10 - - - -
30/05:00am 9.0 SSW 5 6 1019.1 - 0.0 - - 10 - - - -
30/04:30am 9.7 SSW 5 6 1019.0 - 0.0 - - 10 - - - -
30/04:00am 9.7 SSW 6 6 1019.0 - 0.0 - - 10 - - - -
30/03:30am 9.5 SW 4 5 1019.0 - 0.0 - - 10 - - - -
30/03:00am 10.0 WSW 5 6 1019.1 F 0.0 Fine Clear 30 - - - -
30/02:30am 9.7 SW 5 5 1019.2 - 0.0 - - 10 - - - -
30/02:00am 10.7 SSW 5 6 1019.4 - 0.0 - - 10 - - - -
30/01:30am 11.1 WSW 3 4 1019.6 - 0.0 - - 10 - - - -
30/01:00am 11.9 W 3 5 1019.9 - 0.0 - - 10 - - - -
30/12:30am 10.6 CALM 0 0 1020.0 - 0.0 - - 10 - - - -

Other Formats:

Comma delimited format used in spreadsheet applications
http://www.bom.gov.au/fwo/IDQ60701/IDQ60701.94578.axf

JavaScript Object Notation format (JSON) in row-major order
http://www.bom.gov.au/fwo/IDQ60701/IDQ60701.94578.json